createdAt,value
2023-05-04T00:01:11.507Z,99138.63
2023-05-04T00:06:13.349Z,99137.50
2023-05-04T00:11:15.182Z,99133.53
2023-05-04T00:16:17.073Z,99126.69
2023-05-04T00:21:18.859Z,99125.22
2023-05-04T00:26:21.216Z,99129.00
2023-05-04T00:31:23.734Z,99124.25
2023-05-04T00:36:25.869Z,99122.50
2023-05-04T00:41:27.765Z,99109.78
2023-05-04T00:46:30.099Z,99104.69
2023-05-04T00:51:33.421Z,99103.59
2023-05-04T00:56:41.232Z,99105.69
2023-05-04T01:01:43.195Z,99101.41
2023-05-04T01:06:52.796Z,99096.47
2023-05-04T01:12:08.343Z,99100.44
2023-05-04T01:17:11.952Z,99095.34
2023-05-04T01:22:13.876Z,99099.78
2023-05-04T01:27:23.319Z,99088.34
2023-05-04T01:32:28.535Z,99096.59
2023-05-04T01:37:33.060Z,99099.28
2023-05-04T01:42:35.267Z,99099.78
2023-05-04T01:47:37.075Z,99099.97
2023-05-04T01:52:40.000Z,99095.50
2023-05-04T01:57:41.790Z,99086.44
2023-05-04T02:02:43.918Z,99085.47
2023-05-04T02:07:49.524Z,99093.09
2023-05-04T02:12:52.305Z,99090.53
2023-05-04T02:17:54.241Z,99087.47
2023-05-04T02:22:56.271Z,99093.03
2023-05-04T02:27:58.055Z,99090.50
2023-05-04T02:32:59.914Z,99099.75
2023-05-04T02:38:01.808Z,99094.31
2023-05-04T02:43:03.636Z,99095.56
2023-05-04T02:48:05.645Z,99090.47
2023-05-04T02:53:07.447Z,99095.22
2023-05-04T02:58:09.268Z,99095.13
2023-05-04T03:03:12.546Z,99093.53
2023-05-04T03:08:14.386Z,99097.84
2023-05-04T03:13:16.799Z,99092.84
2023-05-04T03:18:18.849Z,99094.44
2023-05-04T03:23:23.028Z,99089.03
2023-05-04T03:28:25.184Z,99090.66
2023-05-04T03:33:27.043Z,99084.63
2023-05-04T03:38:31.831Z,99095.50
2023-05-04T03:43:34.360Z,99090.84
2023-05-04T03:48:36.564Z,99084.03
2023-05-04T03:53:41.736Z,99093.72
2023-05-04T03:58:44.721Z,99086.28
2023-05-04T04:03:49.722Z,99091.25
2023-05-04T04:08:53.962Z,99091.94
2023-05-04T04:13:56.029Z,99084.53
2023-05-04T04:18:58.248Z,99080.34
2023-05-04T04:24:00.000Z,99081.31
2023-05-04T04:29:02.338Z,99074.66
2023-05-04T04:34:04.189Z,99087.25
2023-05-04T04:39:06.401Z,99082.31
2023-05-04T04:44:08.185Z,99081.69
2023-05-04T04:49:10.258Z,99078.78
2023-05-04T04:54:12.022Z,99083.88
2023-05-04T04:59:14.159Z,99087.38
2023-05-04T05:04:16.100Z,99084.00
2023-05-04T05:09:18.000Z,99085.59
2023-05-04T05:14:19.749Z,99089.53
2023-05-04T05:19:21.520Z,99087.41
2023-05-04T05:24:23.453Z,99084.66
2023-05-04T05:29:25.473Z,99083.47
2023-05-04T05:34:27.388Z,99087.69
2023-05-04T05:39:29.397Z,99074.00
2023-05-04T05:44:31.384Z,99077.84
2023-05-04T05:49:33.285Z,99086.00
2023-05-04T05:54:35.426Z,99082.91
2023-05-04T05:59:37.236Z,99085.38
2023-05-04T06:04:39.396Z,99086.50
2023-05-04T06:09:41.494Z,99089.13
2023-05-04T06:14:43.722Z,99070.88
2023-05-04T06:19:48.096Z,99072.66
2023-05-04T06:24:51.368Z,99061.47
2023-05-04T06:29:53.158Z,99062.88
2023-05-04T06:34:59.530Z,99059.19
2023-05-04T06:40:01.316Z,99062.94
2023-05-04T06:45:03.332Z,99063.53
2023-05-04T06:50:12.173Z,99059.06
2023-05-04T06:55:14.032Z,99050.81
2023-05-04T07:00:15.984Z,99061.28
2023-05-04T07:05:17.881Z,99059.25
2023-05-04T07:10:19.735Z,99056.31
2023-05-04T07:15:21.706Z,99061.84
2023-05-04T07:20:25.858Z,99044.16
2023-05-04T07:25:28.957Z,99042.16
2023-05-04T07:30:30.846Z,99039.28
2023-05-04T07:35:32.627Z,99044.56
2023-05-04T07:40:34.533Z,99025.56
2023-05-04T07:45:36.394Z,99024.19
2023-05-04T07:50:38.244Z,99024.84
2023-05-04T07:55:40.144Z,99016.84
2023-05-04T08:00:41.980Z,99022.56
2023-05-04T08:05:43.846Z,99015.66
2023-05-04T08:10:45.730Z,99031.03
2023-05-04T08:15:47.559Z,99029.78
2023-05-04T08:20:49.446Z,99015.31
2023-05-04T08:25:52.458Z,99009.56
2023-05-04T08:30:54.288Z,99009.72
2023-05-04T08:35:56.350Z,98999.59
2023-05-04T08:40:58.234Z,99001.97
2023-05-04T08:46:00.236Z,99000.50
2023-05-04T08:51:04.513Z,98984.06
2023-05-04T08:56:09.610Z,98991.13
2023-05-04T09:01:12.399Z,98989.63
2023-05-04T09:06:14.870Z,98996.31
2023-05-04T09:11:17.252Z,99003.75
2023-05-04T09:16:20.185Z,98989.63
2023-05-04T09:21:30.220Z,98986.47
2023-05-04T09:26:33.079Z,98973.88
2023-05-04T09:31:52.478Z,98982.16
2023-05-04T09:37:02.124Z,98982.53
2023-05-04T09:42:05.861Z,98997.44
2023-05-04T09:47:08.547Z,98980.13
2023-05-04T09:52:12.060Z,98984.41
2023-05-04T09:57:15.557Z,98973.78
2023-05-04T10:02:22.494Z,98971.38
2023-05-04T10:07:25.302Z,98967.78
2023-05-04T10:12:27.686Z,98965.41
2023-05-04T10:17:47.351Z,98948.41
2023-05-04T10:23:23.674Z,98942.88
2023-05-04T10:28:57.085Z,98938.56
2023-05-04T10:33:58.929Z,98932.56
2023-05-04T10:39:01.504Z,98922.44
2023-05-04T10:44:06.734Z,98911.75
2023-05-04T10:49:17.913Z,98904.88
2023-05-04T10:54:20.067Z,98907.56
2023-05-04T10:59:22.033Z,98899.63
2023-05-04T11:04:24.624Z,98897.03
2023-05-04T11:09:28.284Z,98885.50
2023-05-04T11:14:30.404Z,98881.31
2023-05-04T11:19:33.603Z,98863.06
2023-05-04T11:24:43.553Z,98854.41
2023-05-04T11:30:06.048Z,98853.59
2023-05-04T11:35:09.794Z,98849.19
2023-05-04T11:40:14.204Z,98846.28
2023-05-04T11:45:22.186Z,98844.84
2023-05-04T11:50:25.328Z,98843.03
2023-05-04T11:55:31.998Z,98832.31
2023-05-04T12:00:40.390Z,98820.25
2023-05-04T12:05:50.936Z,98825.69
2023-05-04T12:11:08.126Z,98821.59
2023-05-04T12:16:18.449Z,98810.94
2023-05-04T12:21:23.507Z,98805.22
2023-05-04T12:26:26.282Z,98819.78
2023-05-04T12:31:28.765Z,98816.56
2023-05-04T12:36:30.780Z,98807.06
2023-05-04T12:41:32.699Z,98804.25
2023-05-04T12:46:34.630Z,98796.81
2023-05-04T12:51:36.884Z,98796.81
2023-05-04T12:56:39.865Z,98792.91
2023-05-04T13:01:41.806Z,98785.44
2023-05-04T13:06:44.287Z,98785.59
2023-05-04T13:11:47.631Z,98775.50
2023-05-04T13:16:51.040Z,98771.56
2023-05-04T13:21:52.937Z,98776.75
2023-05-04T13:26:54.759Z,98770.28
2023-05-04T13:31:57.391Z,98769.31
2023-05-04T13:36:59.246Z,98760.84
2023-05-04T13:42:01.032Z,98755.59
2023-05-04T13:47:03.732Z,98741.38
2023-05-04T13:52:06.240Z,98725.59
2023-05-04T13:57:08.037Z,98734.81
2023-05-04T14:02:09.861Z,98728.81
2023-05-04T14:07:11.676Z,98721.59
2023-05-04T14:12:13.452Z,98714.69
2023-05-04T14:17:15.244Z,98706.75
2023-05-04T14:22:17.277Z,98702.00
2023-05-04T14:27:21.112Z,98690.75
2023-05-04T14:32:23.247Z,98695.06
2023-05-04T14:37:25.077Z,98693.50
2023-05-04T14:42:27.020Z,98688.81
2023-05-04T14:47:29.167Z,98678.59
2023-05-04T14:52:31.195Z,98679.47
2023-05-04T14:57:33.086Z,98669.94
2023-05-04T15:02:35.890Z,98658.19
2023-05-04T15:07:37.893Z,98662.19
2023-05-04T15:12:40.248Z,98659.09
2023-05-04T15:17:42.266Z,98657.63
2023-05-04T15:22:52.220Z,98649.69
2023-05-04T15:27:55.522Z,98654.44
2023-05-04T15:32:57.528Z,98647.94
2023-05-04T15:37:59.761Z,98631.56
2023-05-04T15:43:01.544Z,98642.44
2023-05-04T15:48:03.628Z,98626.66
2023-05-04T15:53:05.452Z,98621.97
2023-05-04T15:58:07.724Z,98611.41
2023-05-04T16:03:09.567Z,98609.50
2023-05-04T16:08:11.617Z,98606.38
2023-05-04T16:13:13.511Z,98603.25
2023-05-04T16:18:15.512Z,98606.84
2023-05-04T16:23:18.460Z,98590.78
2023-05-04T16:28:20.366Z,98597.19
2023-05-04T16:33:22.179Z,98599.75
2023-05-04T16:38:24.164Z,98600.22
2023-05-04T16:43:26.114Z,98601.38
2023-05-04T16:48:27.926Z,98602.97
2023-05-04T16:53:29.696Z,98596.38
2023-05-04T16:58:31.479Z,98596.22
2023-05-04T17:03:33.293Z,98594.84
2023-05-04T17:08:35.114Z,98583.25
2023-05-04T17:13:37.296Z,98569.66
2023-05-04T17:18:39.077Z,98581.97
2023-05-04T17:23:41.129Z,98588.38
2023-05-04T17:28:42.953Z,98579.00
2023-05-04T17:33:44.751Z,98584.16
2023-05-04T17:38:46.574Z,98576.81
2023-05-04T17:43:50.244Z,98584.78
2023-05-04T17:48:54.588Z,98586.47
2023-05-04T17:53:56.501Z,98586.13
2023-05-04T17:58:58.783Z,98596.78
2023-05-04T18:04:03.295Z,98600.00
2023-05-04T18:09:05.145Z,98607.88
2023-05-04T18:14:07.190Z,98609.47
2023-05-04T18:19:09.112Z,98619.03
2023-05-04T18:24:10.918Z,98619.09
2023-05-04T18:34:19.427Z,98610.94
2023-05-04T18:39:21.201Z,98611.53
2023-05-04T18:44:23.091Z,98609.28
2023-05-04T18:49:25.044Z,98611.78
2023-05-04T18:54:30.163Z,98609.91
2023-05-04T18:59:33.972Z,98611.94
2023-05-04T19:04:35.821Z,98612.81
2023-05-04T19:09:37.948Z,98616.00
2023-05-04T19:14:40.672Z,98614.06
2023-05-04T19:19:42.480Z,98620.75
2023-05-04T19:24:44.546Z,98620.78
2023-05-04T19:29:47.242Z,98612.19
2023-05-04T19:34:48.985Z,98627.88
2023-05-04T19:39:51.050Z,98620.06
2023-05-04T19:44:53.285Z,98613.00
2023-05-04T19:49:55.301Z,98619.25
2023-05-04T19:54:57.092Z,98618.38
2023-05-04T19:59:59.324Z,98609.72
2023-05-04T20:05:01.192Z,98606.97
2023-05-04T20:10:03.469Z,98601.47
2023-05-04T20:15:06.666Z,98597.16
2023-05-04T20:20:09.831Z,98600.25
2023-05-04T20:25:12.014Z,98593.97
2023-05-04T20:30:13.916Z,98596.28
2023-05-04T20:35:16.524Z,98589.19
2023-05-04T20:40:18.379Z,98593.03
2023-05-04T20:45:20.807Z,98595.78
2023-05-04T20:50:23.149Z,98592.28
2023-05-04T20:55:24.945Z,98592.31
2023-05-04T21:00:27.205Z,98588.41
2023-05-04T21:05:29.006Z,98590.75
2023-05-04T21:10:30.876Z,98590.72
2023-05-04T21:15:32.724Z,98589.91
2023-05-04T21:20:34.509Z,98591.00
2023-05-04T21:25:36.393Z,98582.66
2023-05-04T21:30:42.957Z,98571.91
2023-05-04T21:35:45.086Z,98574.53
2023-05-04T21:40:46.977Z,98578.28
2023-05-04T21:45:48.726Z,98569.63
2023-05-04T21:50:50.490Z,98568.75
2023-05-04T21:55:52.524Z,98568.72
2023-05-04T22:00:55.329Z,98556.75
2023-05-04T22:06:00.595Z,98564.38
2023-05-04T22:11:02.548Z,98571.97
2023-05-04T22:16:04.630Z,98560.81
2023-05-04T22:21:06.591Z,98566.09
2023-05-04T22:26:08.417Z,98564.56
2023-05-04T22:31:10.506Z,98566.78
2023-05-04T22:36:12.669Z,98565.00
2023-05-04T22:41:15.083Z,98564.97
2023-05-04T22:46:17.726Z,98567.09
2023-05-04T22:51:19.508Z,98566.97
2023-05-04T22:56:21.415Z,98573.78
2023-05-04T23:01:23.558Z,98575.06
2023-05-04T23:06:25.397Z,98570.28
2023-05-04T23:11:27.292Z,98571.00
2023-05-04T23:16:29.210Z,98566.88
2023-05-04T23:21:31.553Z,98558.47
2023-05-04T23:26:33.431Z,98553.75
2023-05-04T23:31:35.256Z,98550.13
2023-05-04T23:36:37.748Z,98558.47
2023-05-04T23:41:39.539Z,98549.38
2023-05-04T23:46:41.423Z,98548.19
2023-05-04T23:51:43.349Z,98561.91
2023-05-04T23:56:45.200Z,98556.19
